sensor_id;sensor_type;location;lat;lon;timestamp;P1;durP1;ratioP1;P2;durP2;ratioP2
5845;SDS011;2949;50.778;7.094;2023-02-22T00:00:39;250.10;;;34.90;;
5845;SDS011;2949;50.778;7.094;2023-02-22T00:03:18;214.17;;;34.87;;
5845;SDS011;2949;50.778;7.094;2023-02-22T00:05:49;252.13;;;36.70;;
5845;SDS011;2949;50.778;7.094;2023-02-22T00:08:22;227.20;;;33.30;;
5845;SDS011;2949;50.778;7.094;2023-02-22T00:10:49;152.87;;;34.17;;
5845;SDS011;2949;50.778;7.094;2023-02-22T00:13:18;172.90;;;33.87;;
5845;SDS011;2949;50.778;7.094;2023-02-22T00:15:46;209.87;;;34.20;;
5845;SDS011;2949;50.778;7.094;2023-02-22T00:18:13;187.53;;;34.30;;
5845;SDS011;2949;50.778;7.094;2023-02-22T00:20:40;155.87;;;31.70;;
5845;SDS011;2949;50.778;7.094;2023-02-22T00:23:07;156.83;;;33.13;;
5845;SDS011;2949;50.778;7.094;2023-02-22T00:25:36;234.23;;;36.90;;
5845;SDS011;2949;50.778;7.094;2023-02-22T00:28:02;161.10;;;30.53;;
5845;SDS011;2949;50.778;7.094;2023-02-22T00:30:29;127.63;;;28.47;;
5845;SDS011;2949;50.778;7.094;2023-02-22T00:32:56;160.23;;;29.43;;
5845;SDS011;2949;50.778;7.094;2023-02-22T00:35:23;104.43;;;29.10;;
5845;SDS011;2949;50.778;7.094;2023-02-22T00:37:51;153.07;;;28.90;;
5845;SDS011;2949;50.778;7.094;2023-02-22T00:40:27;186.03;;;31.53;;
5845;SDS011;2949;50.778;7.094;2023-02-22T00:42:54;118.70;;;27.97;;
5845;SDS011;2949;50.778;7.094;2023-02-22T00:45:22;97.83;;;26.30;;
5845;SDS011;2949;50.778;7.094;2023-02-22T00:47:49;98.43;;;25.83;;
5845;SDS011;2949;50.778;7.094;2023-02-22T00:50:15;139.03;;;28.30;;
5845;SDS011;2949;50.778;7.094;2023-02-22T00:52:42;99.00;;;25.23;;
5845;SDS011;2949;50.778;7.094;2023-02-22T00:55:08;104.37;;;25.93;;
5845;SDS011;2949;50.778;7.094;2023-02-22T00:57:39;118.00;;;25.20;;
5845;SDS011;2949;50.778;7.094;2023-02-22T01:00:05;130.60;;;26.20;;
5845;SDS011;2949;50.778;7.094;2023-02-22T01:02:38;147.77;;;27.63;;
5845;SDS011;2949;50.778;7.094;2023-02-22T01:05:06;113.03;;;26.70;;
5845;SDS011;2949;50.778;7.094;2023-02-22T01:07:32;82.83;;;24.30;;
5845;SDS011;2949;50.778;7.094;2023-02-22T01:09:58;148.20;;;27.27;;
5845;SDS011;2949;50.778;7.094;2023-02-22T01:12:25;192.63;;;27.43;;
5845;SDS011;2949;50.778;7.094;2023-02-22T01:14:51;105.23;;;23.10;;
5845;SDS011;2949;50.778;7.094;2023-02-22T01:17:20;112.53;;;27.37;;
5845;SDS011;2949;50.778;7.094;2023-02-22T01:19:49;166.70;;;26.37;;
5845;SDS011;2949;50.778;7.094;2023-02-22T01:22:15;89.20;;;24.33;;
5845;SDS011;2949;50.778;7.094;2023-02-22T01:24:40;121.53;;;23.43;;
5845;SDS011;2949;50.778;7.094;2023-02-22T01:27:06;92.77;;;23.40;;
5845;SDS011;2949;50.778;7.094;2023-02-22T01:29:31;87.37;;;23.60;;
5845;SDS011;2949;50.778;7.094;2023-02-22T01:31:57;109.43;;;22.43;;
5845;SDS011;2949;50.778;7.094;2023-02-22T01:34:23;127.43;;;23.67;;
5845;SDS011;2949;50.778;7.094;2023-02-22T01:36:49;156.90;;;24.77;;
5845;SDS011;2949;50.778;7.094;2023-02-22T01:39:15;197.73;;;26.77;;
5845;SDS011;2949;50.778;7.094;2023-02-22T01:41:42;112.40;;;22.00;;
5845;SDS011;2949;50.778;7.094;2023-02-22T01:44:31;91.63;;;22.17;;
5845;SDS011;2949;50.778;7.094;2023-02-22T01:46:57;67.63;;;21.53;;
5845;SDS011;2949;50.778;7.094;2023-02-22T01:49:24;99.63;;;20.97;;
5845;SDS011;2949;50.778;7.094;2023-02-22T01:51:53;106.10;;;20.87;;
5845;SDS011;2949;50.778;7.094;2023-02-22T01:54:29;195.33;;;22.50;;
5845;SDS011;2949;50.778;7.094;2023-02-22T01:57:05;93.13;;;19.73;;
5845;SDS011;2949;50.778;7.094;2023-02-22T01:59:41;111.63;;;20.07;;
5845;SDS011;2949;50.778;7.094;2023-02-22T02:02:10;88.03;;;19.67;;
5845;SDS011;2949;50.778;7.094;2023-02-22T02:04:37;235.27;;;21.23;;
5845;SDS011;2949;50.778;7.094;2023-02-22T02:07:06;77.13;;;19.77;;
5845;SDS011;2949;50.778;7.094;2023-02-22T02:12:18;56.87;;;17.60;;
5845;SDS011;2949;50.778;7.094;2023-02-22T02:14:47;58.67;;;16.80;;
5845;SDS011;2949;50.778;7.094;2023-02-22T02:17:15;56.43;;;19.23;;
5845;SDS011;2949;50.778;7.094;2023-02-22T02:28:38;41.33;;;16.83;;
5845;SDS011;2949;50.778;7.094;2023-02-22T02:39:26;114.30;;;16.03;;
5845;SDS011;2949;50.778;7.094;2023-02-22T02:42:15;32.53;;;13.33;;
5845;SDS011;2949;50.778;7.094;2023-02-22T02:44:47;32.43;;;12.33;;
5845;SDS011;2949;50.778;7.094;2023-02-22T02:47:29;34.80;;;13.30;;
5845;SDS011;2949;50.778;7.094;2023-02-22T02:50:03;54.37;;;14.97;;
5845;SDS011;2949;50.778;7.094;2023-02-22T02:52:33;62.83;;;14.87;;
5845;SDS011;2949;50.778;7.094;2023-02-22T02:55:01;34.20;;;14.93;;
5845;SDS011;2949;50.778;7.094;2023-02-22T02:57:28;35.43;;;14.30;;
5845;SDS011;2949;50.778;7.094;2023-02-22T02:59:54;62.43;;;14.53;;
5845;SDS011;2949;50.778;7.094;2023-02-22T03:08:06;46.77;;;14.17;;
5845;SDS011;2949;50.778;7.094;2023-02-22T03:10:42;52.40;;;16.30;;
5845;SDS011;2949;50.778;7.094;2023-02-22T03:15:41;68.30;;;19.07;;
5845;SDS011;2949;50.778;7.094;2023-02-22T03:18:17;49.40;;;16.90;;
5845;SDS011;2949;50.778;7.094;2023-02-22T03:26:14;95.50;;;22.30;;
5845;SDS011;2949;50.778;7.094;2023-02-22T03:28:48;105.73;;;22.47;;
5845;SDS011;2949;50.778;7.094;2023-02-22T03:31:18;130.57;;;22.33;;
5845;SDS011;2949;50.778;7.094;2023-02-22T03:34:12;124.87;;;22.90;;
5845;SDS011;2949;50.778;7.094;2023-02-22T03:36:49;116.33;;;22.90;;
5845;SDS011;2949;50.778;7.094;2023-02-22T03:39:20;111.40;;;21.67;;
5845;SDS011;2949;50.778;7.094;2023-02-22T03:41:55;117.63;;;23.50;;
5845;SDS011;2949;50.778;7.094;2023-02-22T03:44:25;148.07;;;24.40;;
5845;SDS011;2949;50.778;7.094;2023-02-22T03:46:54;77.80;;;24.00;;
5845;SDS011;2949;50.778;7.094;2023-02-22T03:49:33;88.37;;;23.03;;
5845;SDS011;2949;50.778;7.094;2023-02-22T03:52:02;99.93;;;23.87;;
5845;SDS011;2949;50.778;7.094;2023-02-22T03:54:29;108.83;;;22.70;;
5845;SDS011;2949;50.778;7.094;2023-02-22T03:57:07;81.50;;;22.70;;
5845;SDS011;2949;50.778;7.094;2023-02-22T03:59:38;112.50;;;25.83;;
5845;SDS011;2949;50.778;7.094;2023-02-22T04:02:04;79.53;;;24.07;;
5845;SDS011;2949;50.778;7.094;2023-02-22T04:04:30;123.13;;;26.80;;
5845;SDS011;2949;50.778;7.094;2023-02-22T04:06:55;84.87;;;25.97;;
5845;SDS011;2949;50.778;7.094;2023-02-22T04:09:21;101.20;;;27.80;;
5845;SDS011;2949;50.778;7.094;2023-02-22T04:11:47;83.67;;;25.90;;
5845;SDS011;2949;50.778;7.094;2023-02-22T04:14:12;96.77;;;26.17;;
5845;SDS011;2949;50.778;7.094;2023-02-22T04:16:38;78.70;;;24.73;;
5845;SDS011;2949;50.778;7.094;2023-02-22T04:19:04;67.53;;;23.97;;
5845;SDS011;2949;50.778;7.094;2023-02-22T04:21:30;65.10;;;22.63;;
5845;SDS011;2949;50.778;7.094;2023-02-22T04:23:56;75.00;;;25.53;;
5845;SDS011;2949;50.778;7.094;2023-02-22T04:26:21;65.80;;;24.57;;
5845;SDS011;2949;50.778;7.094;2023-02-22T04:28:47;77.57;;;24.30;;
5845;SDS011;2949;50.778;7.094;2023-02-22T04:31:12;67.40;;;23.53;;
5845;SDS011;2949;50.778;7.094;2023-02-22T04:33:38;78.50;;;23.27;;
5845;SDS011;2949;50.778;7.094;2023-02-22T04:36:04;73.13;;;25.00;;
5845;SDS011;2949;50.778;7.094;2023-02-22T04:38:29;77.87;;;25.50;;
5845;SDS011;2949;50.778;7.094;2023-02-22T04:40:55;54.00;;;21.57;;
5845;SDS011;2949;50.778;7.094;2023-02-22T04:43:21;61.10;;;22.77;;
5845;SDS011;2949;50.778;7.094;2023-02-22T04:45:46;48.37;;;20.03;;
5845;SDS011;2949;50.778;7.094;2023-02-22T04:48:12;54.23;;;22.27;;
5845;SDS011;2949;50.778;7.094;2023-02-22T04:50:37;57.37;;;21.20;;
5845;SDS011;2949;50.778;7.094;2023-02-22T04:53:04;51.03;;;19.60;;
5845;SDS011;2949;50.778;7.094;2023-02-22T04:55:30;54.10;;;19.70;;
5845;SDS011;2949;50.778;7.094;2023-02-22T04:57:55;50.20;;;20.63;;
5845;SDS011;2949;50.778;7.094;2023-02-22T05:00:21;41.60;;;18.70;;
5845;SDS011;2949;50.778;7.094;2023-02-22T05:02:48;46.50;;;18.53;;
5845;SDS011;2949;50.778;7.094;2023-02-22T05:05:14;51.27;;;19.03;;
5845;SDS011;2949;50.778;7.094;2023-02-22T05:07:41;47.73;;;18.80;;
5845;SDS011;2949;50.778;7.094;2023-02-22T05:10:07;41.50;;;17.47;;
5845;SDS011;2949;50.778;7.094;2023-02-22T05:12:34;45.27;;;18.50;;
5845;SDS011;2949;50.778;7.094;2023-02-22T05:15:00;38.80;;;18.23;;
5845;SDS011;2949;50.778;7.094;2023-02-22T05:17:25;49.70;;;17.90;;
5845;SDS011;2949;50.778;7.094;2023-02-22T05:19:51;52.77;;;19.50;;
5845;SDS011;2949;50.778;7.094;2023-02-22T05:22:17;48.53;;;19.60;;
5845;SDS011;2949;50.778;7.094;2023-02-22T05:24:42;45.67;;;18.33;;
5845;SDS011;2949;50.778;7.094;2023-02-22T05:27:08;51.50;;;18.33;;
5845;SDS011;2949;50.778;7.094;2023-02-22T05:29:34;37.10;;;16.90;;
5845;SDS011;2949;50.778;7.094;2023-02-22T05:31:59;52.30;;;20.23;;
5845;SDS011;2949;50.778;7.094;2023-02-22T05:34:26;54.77;;;20.50;;
5845;SDS011;2949;50.778;7.094;2023-02-22T05:36:52;54.30;;;19.17;;
5845;SDS011;2949;50.778;7.094;2023-02-22T05:39:17;68.63;;;20.60;;
5845;SDS011;2949;50.778;7.094;2023-02-22T05:41:43;71.33;;;22.67;;
5845;SDS011;2949;50.778;7.094;2023-02-22T05:44:08;58.70;;;21.40;;
5845;SDS011;2949;50.778;7.094;2023-02-22T05:46:34;65.87;;;20.80;;
5845;SDS011;2949;50.778;7.094;2023-02-22T05:48:59;51.23;;;20.07;;
5845;SDS011;2949;50.778;7.094;2023-02-22T05:51:25;49.47;;;20.33;;
5845;SDS011;2949;50.778;7.094;2023-02-22T05:53:51;48.10;;;19.00;;
5845;SDS011;2949;50.778;7.094;2023-02-22T05:56:23;43.37;;;18.37;;
5845;SDS011;2949;50.778;7.094;2023-02-22T05:58:51;36.90;;;17.13;;
5845;SDS011;2949;50.778;7.094;2023-02-22T06:01:16;48.70;;;19.30;;
5845;SDS011;2949;50.778;7.094;2023-02-22T06:03:44;47.90;;;18.00;;
5845;SDS011;2949;50.778;7.094;2023-02-22T06:06:11;38.33;;;17.40;;
5845;SDS011;2949;50.778;7.094;2023-02-22T06:08:37;36.10;;;16.30;;
5845;SDS011;2949;50.778;7.094;2023-02-22T06:11:02;37.00;;;16.80;;
5845;SDS011;2949;50.778;7.094;2023-02-22T06:13:28;46.23;;;17.83;;
5845;SDS011;2949;50.778;7.094;2023-02-22T06:15:53;36.17;;;18.20;;
5845;SDS011;2949;50.778;7.094;2023-02-22T06:18:19;43.83;;;17.50;;
5845;SDS011;2949;50.778;7.094;2023-02-22T06:20:44;45.67;;;17.77;;
5845;SDS011;2949;50.778;7.094;2023-02-22T06:23:10;48.53;;;18.80;;
5845;SDS011;2949;50.778;7.094;2023-02-22T06:25:35;45.90;;;17.70;;
5845;SDS011;2949;50.778;7.094;2023-02-22T06:28:01;48.43;;;19.67;;
5845;SDS011;2949;50.778;7.094;2023-02-22T06:30:28;50.20;;;18.43;;
5845;SDS011;2949;50.778;7.094;2023-02-22T06:32:54;48.77;;;18.67;;
5845;SDS011;2949;50.778;7.094;2023-02-22T06:35:20;39.57;;;16.23;;
5845;SDS011;2949;50.778;7.094;2023-02-22T06:37:46;38.23;;;17.30;;
5845;SDS011;2949;50.778;7.094;2023-02-22T06:40:12;38.03;;;17.53;;
5845;SDS011;2949;50.778;7.094;2023-02-22T06:42:38;34.93;;;17.60;;
5845;SDS011;2949;50.778;7.094;2023-02-22T06:45:04;38.13;;;16.50;;
5845;SDS011;2949;50.778;7.094;2023-02-22T06:47:30;38.73;;;18.37;;
5845;SDS011;2949;50.778;7.094;2023-02-22T06:49:56;38.00;;;16.30;;
5845;SDS011;2949;50.778;7.094;2023-02-22T06:52:23;37.20;;;15.80;;
5845;SDS011;2949;50.778;7.094;2023-02-22T06:54:49;35.60;;;17.30;;
5845;SDS011;2949;50.778;7.094;2023-02-22T06:57:15;33.70;;;16.77;;
5845;SDS011;2949;50.778;7.094;2023-02-22T06:59:41;37.03;;;18.37;;
5845;SDS011;2949;50.778;7.094;2023-02-22T07:02:08;38.50;;;16.80;;
5845;SDS011;2949;50.778;7.094;2023-02-22T07:04:36;35.90;;;16.40;;
5845;SDS011;2949;50.778;7.094;2023-02-22T07:07:02;35.67;;;17.00;;
5845;SDS011;2949;50.778;7.094;2023-02-22T07:09:27;37.53;;;17.03;;
5845;SDS011;2949;50.778;7.094;2023-02-22T07:11:53;43.33;;;18.43;;
5845;SDS011;2949;50.778;7.094;2023-02-22T07:14:20;36.70;;;16.90;;
5845;SDS011;2949;50.778;7.094;2023-02-22T07:16:45;44.73;;;17.60;;
5845;SDS011;2949;50.778;7.094;2023-02-22T07:19:11;36.17;;;17.90;;
5845;SDS011;2949;50.778;7.094;2023-02-22T07:21:36;33.50;;;17.33;;
5845;SDS011;2949;50.778;7.094;2023-02-22T07:24:02;47.70;;;16.47;;
5845;SDS011;2949;50.778;7.094;2023-02-22T07:26:27;36.13;;;16.90;;
5845;SDS011;2949;50.778;7.094;2023-02-22T07:28:53;32.60;;;16.27;;
5845;SDS011;2949;50.778;7.094;2023-02-22T07:31:18;31.73;;;15.47;;
5845;SDS011;2949;50.778;7.094;2023-02-22T07:33:45;30.63;;;14.60;;
5845;SDS011;2949;50.778;7.094;2023-02-22T07:36:11;35.57;;;16.53;;
5845;SDS011;2949;50.778;7.094;2023-02-22T07:38:44;31.33;;;14.47;;
5845;SDS011;2949;50.778;7.094;2023-02-22T07:41:09;35.47;;;14.40;;
5845;SDS011;2949;50.778;7.094;2023-02-22T07:43:35;31.10;;;14.80;;
5845;SDS011;2949;50.778;7.094;2023-02-22T07:46:01;28.63;;;13.27;;
5845;SDS011;2949;50.778;7.094;2023-02-22T07:48:27;31.23;;;14.37;;
5845;SDS011;2949;50.778;7.094;2023-02-22T07:50:54;31.67;;;15.67;;
5845;SDS011;2949;50.778;7.094;2023-02-22T07:53:21;31.33;;;14.17;;
5845;SDS011;2949;50.778;7.094;2023-02-22T07:55:53;33.00;;;15.20;;
5845;SDS011;2949;50.778;7.094;2023-02-22T07:58:21;31.77;;;13.90;;
5845;SDS011;2949;50.778;7.094;2023-02-22T08:00:48;27.73;;;13.30;;
5845;SDS011;2949;50.778;7.094;2023-02-22T08:03:14;33.50;;;14.30;;
5845;SDS011;2949;50.778;7.094;2023-02-22T08:05:41;25.87;;;12.20;;
5845;SDS011;2949;50.778;7.094;2023-02-22T08:08:09;24.67;;;13.27;;
5845;SDS011;2949;50.778;7.094;2023-02-22T08:10:35;21.50;;;11.63;;
5845;SDS011;2949;50.778;7.094;2023-02-22T08:13:02;25.17;;;13.50;;
5845;SDS011;2949;50.778;7.094;2023-02-22T08:15:30;29.93;;;13.50;;
5845;SDS011;2949;50.778;7.094;2023-02-22T08:17:59;24.57;;;13.10;;
5845;SDS011;2949;50.778;7.094;2023-02-22T08:20:28;27.47;;;12.80;;
5845;SDS011;2949;50.778;7.094;2023-02-22T08:22:57;24.70;;;12.97;;
5845;SDS011;2949;50.778;7.094;2023-02-22T08:25:23;30.93;;;13.80;;
5845;SDS011;2949;50.778;7.094;2023-02-22T08:27:51;23.73;;;13.00;;
5845;SDS011;2949;50.778;7.094;2023-02-22T08:30:18;24.80;;;12.80;;
5845;SDS011;2949;50.778;7.094;2023-02-22T08:32:46;26.40;;;12.50;;
5845;SDS011;2949;50.778;7.094;2023-02-22T08:35:12;24.83;;;11.83;;
5845;SDS011;2949;50.778;7.094;2023-02-22T08:37:42;26.87;;;14.57;;
5845;SDS011;2949;50.778;7.094;2023-02-22T08:40:08;26.50;;;13.57;;
5845;SDS011;2949;50.778;7.094;2023-02-22T08:42:34;25.37;;;14.40;;
5845;SDS011;2949;50.778;7.094;2023-02-22T08:45:00;23.63;;;12.27;;
5845;SDS011;2949;50.778;7.094;2023-02-22T08:47:25;32.57;;;14.60;;
5845;SDS011;2949;50.778;7.094;2023-02-22T08:49:51;36.07;;;12.80;;
5845;SDS011;2949;50.778;7.094;2023-02-22T08:52:16;31.97;;;14.00;;
5845;SDS011;2949;50.778;7.094;2023-02-22T08:54:43;30.90;;;14.00;;
5845;SDS011;2949;50.778;7.094;2023-02-22T08:57:12;31.93;;;14.97;;
5845;SDS011;2949;50.778;7.094;2023-02-22T08:59:43;28.90;;;14.13;;
5845;SDS011;2949;50.778;7.094;2023-02-22T09:02:12;25.23;;;12.30;;
5845;SDS011;2949;50.778;7.094;2023-02-22T09:04:42;28.83;;;13.13;;
5845;SDS011;2949;50.778;7.094;2023-02-22T09:07:08;21.87;;;11.37;;
5845;SDS011;2949;50.778;7.094;2023-02-22T09:09:34;28.90;;;14.10;;
5845;SDS011;2949;50.778;7.094;2023-02-22T09:12:00;25.67;;;12.63;;
5845;SDS011;2949;50.778;7.094;2023-02-22T09:14:26;30.33;;;13.63;;
5845;SDS011;2949;50.778;7.094;2023-02-22T09:16:52;28.20;;;13.27;;
5845;SDS011;2949;50.778;7.094;2023-02-22T09:19:17;29.63;;;12.03;;
5845;SDS011;2949;50.778;7.094;2023-02-22T09:21:43;26.70;;;12.93;;
5845;SDS011;2949;50.778;7.094;2023-02-22T09:24:08;21.87;;;12.17;;
5845;SDS011;2949;50.778;7.094;2023-02-22T09:26:34;18.27;;;11.03;;
5845;SDS011;2949;50.778;7.094;2023-02-22T09:29:03;20.23;;;12.03;;
5845;SDS011;2949;50.778;7.094;2023-02-22T09:31:33;26.80;;;12.03;;
5845;SDS011;2949;50.778;7.094;2023-02-22T09:33:59;20.27;;;10.03;;
5845;SDS011;2949;50.778;7.094;2023-02-22T09:36:24;23.50;;;12.33;;
5845;SDS011;2949;50.778;7.094;2023-02-22T09:38:50;22.23;;;11.10;;
5845;SDS011;2949;50.778;7.094;2023-02-22T09:41:17;20.83;;;10.57;;
5845;SDS011;2949;50.778;7.094;2023-02-22T09:43:52;19.00;;;11.43;;
5845;SDS011;2949;50.778;7.094;2023-02-22T09:51:52;18.03;;;10.53;;
5845;SDS011;2949;50.778;7.094;2023-02-22T09:56:59;17.97;;;10.07;;
5845;SDS011;2949;50.778;7.094;2023-02-22T09:59:30;25.53;;;10.83;;
5845;SDS011;2949;50.778;7.094;2023-02-22T10:02:02;23.37;;;10.73;;
5845;SDS011;2949;50.778;7.094;2023-02-22T10:05:09;17.90;;;9.60;;
5845;SDS011;2949;50.778;7.094;2023-02-22T10:07:52;15.47;;;8.33;;
5845;SDS011;2949;50.778;7.094;2023-02-22T10:10:20;17.03;;;8.80;;
5845;SDS011;2949;50.778;7.094;2023-02-22T10:13:00;15.40;;;9.10;;
5845;SDS011;2949;50.778;7.094;2023-02-22T10:15:32;13.93;;;9.50;;
5845;SDS011;2949;50.778;7.094;2023-02-22T10:23:00;14.33;;;8.17;;
5845;SDS011;2949;50.778;7.094;2023-02-22T10:25:29;13.60;;;7.63;;
5845;SDS011;2949;50.778;7.094;2023-02-22T10:28:09;11.83;;;7.63;;
5845;SDS011;2949;50.778;7.094;2023-02-22T10:30:45;13.87;;;7.60;;
5845;SDS011;2949;50.778;7.094;2023-02-22T10:33:17;12.30;;;6.90;;
5845;SDS011;2949;50.778;7.094;2023-02-22T10:35:45;14.23;;;7.47;;
5845;SDS011;2949;50.778;7.094;2023-02-22T10:38:18;9.50;;;6.23;;
5845;SDS011;2949;50.778;7.094;2023-02-22T10:40:48;11.13;;;6.70;;
5845;SDS011;2949;50.778;7.094;2023-02-22T10:43:15;9.13;;;5.63;;
5845;SDS011;2949;50.778;7.094;2023-02-22T10:45:41;11.40;;;6.57;;
5845;SDS011;2949;50.778;7.094;2023-02-22T10:48:11;11.43;;;5.80;;
5845;SDS011;2949;50.778;7.094;2023-02-22T10:50:42;10.27;;;6.00;;
5845;SDS011;2949;50.778;7.094;2023-02-22T10:53:08;10.80;;;6.27;;
5845;SDS011;2949;50.778;7.094;2023-02-22T10:55:35;10.80;;;5.87;;
5845;SDS011;2949;50.778;7.094;2023-02-22T10:58:02;10.40;;;5.90;;
5845;SDS011;2949;50.778;7.094;2023-02-22T11:00:32;10.00;;;5.30;;
5845;SDS011;2949;50.778;7.094;2023-02-22T11:03:02;10.20;;;5.00;;
5845;SDS011;2949;50.778;7.094;2023-02-22T11:05:35;12.80;;;5.90;;
5845;SDS011;2949;50.778;7.094;2023-02-22T11:10:50;12.97;;;6.70;;
5845;SDS011;2949;50.778;7.094;2023-02-22T11:13:17;15.07;;;7.20;;
5845;SDS011;2949;50.778;7.094;2023-02-22T11:15:46;12.70;;;6.50;;
5845;SDS011;2949;50.778;7.094;2023-02-22T11:18:28;12.20;;;6.30;;
5845;SDS011;2949;50.778;7.094;2023-02-22T11:21:05;13.23;;;5.77;;
5845;SDS011;2949;50.778;7.094;2023-02-22T11:23:32;8.50;;;6.27;;
5845;SDS011;2949;50.778;7.094;2023-02-22T11:26:00;9.83;;;6.77;;
5845;SDS011;2949;50.778;7.094;2023-02-22T11:28:27;15.60;;;6.17;;
5845;SDS011;2949;50.778;7.094;2023-02-22T11:33:35;13.93;;;7.03;;
5845;SDS011;2949;50.778;7.094;2023-02-22T11:36:03;11.63;;;6.60;;
5845;SDS011;2949;50.778;7.094;2023-02-22T11:38:34;12.90;;;7.07;;
5845;SDS011;2949;50.778;7.094;2023-02-22T11:41:17;13.73;;;6.87;;
5845;SDS011;2949;50.778;7.094;2023-02-22T11:43:47;17.70;;;7.03;;
5845;SDS011;2949;50.778;7.094;2023-02-22T11:46:18;12.13;;;6.83;;
5845;SDS011;2949;50.778;7.094;2023-02-22T11:51:33;15.67;;;6.60;;
5845;SDS011;2949;50.778;7.094;2023-02-22T11:59:53;12.57;;;6.27;;
5845;SDS011;2949;50.778;7.094;2023-02-22T12:05:10;9.03;;;6.10;;
5845;SDS011;2949;50.778;7.094;2023-02-22T12:10:33;13.37;;;6.10;;
5845;SDS011;2949;50.778;7.094;2023-02-22T12:13:27;11.57;;;6.20;;
5845;SDS011;2949;50.778;7.094;2023-02-22T12:16:12;11.03;;;6.20;;
5845;SDS011;2949;50.778;7.094;2023-02-22T12:21:45;11.20;;;6.53;;
5845;SDS011;2949;50.778;7.094;2023-02-22T12:24:24;14.23;;;5.60;;
5845;SDS011;2949;50.778;7.094;2023-02-22T12:26:56;10.13;;;5.80;;
5845;SDS011;2949;50.778;7.094;2023-02-22T12:29:29;9.93;;;6.00;;
5845;SDS011;2949;50.778;7.094;2023-02-22T12:34:41;15.40;;;6.17;;
5845;SDS011;2949;50.778;7.094;2023-02-22T12:40:04;11.63;;;6.37;;
5845;SDS011;2949;50.778;7.094;2023-02-22T12:42:43;12.60;;;6.17;;
5845;SDS011;2949;50.778;7.094;2023-02-22T12:45:23;12.10;;;6.23;;
5845;SDS011;2949;50.778;7.094;2023-02-22T12:48:39;11.17;;;6.40;;
5845;SDS011;2949;50.778;7.094;2023-02-22T12:50:40;10.77;;;6.30;;
5845;SDS011;2949;50.778;7.094;2023-02-22T12:53:16;10.73;;;7.00;;
5845;SDS011;2949;50.778;7.094;2023-02-22T12:55:51;13.70;;;5.97;;
5845;SDS011;2949;50.778;7.094;2023-02-22T12:58:44;14.47;;;5.73;;
5845;SDS011;2949;50.778;7.094;2023-02-22T13:01:35;15.97;;;7.40;;
5845;SDS011;2949;50.778;7.094;2023-02-22T13:04:04;14.20;;;6.47;;
5845;SDS011;2949;50.778;7.094;2023-02-22T13:12:39;10.70;;;6.70;;
5845;SDS011;2949;50.778;7.094;2023-02-22T13:18:09;12.40;;;7.03;;
5845;SDS011;2949;50.778;7.094;2023-02-22T13:23:47;15.50;;;7.60;;
5845;SDS011;2949;50.778;7.094;2023-02-22T13:26:39;12.10;;;7.13;;
5845;SDS011;2949;50.778;7.094;2023-02-22T13:29:15;12.47;;;6.70;;
5845;SDS011;2949;50.778;7.094;2023-02-22T13:32:11;13.13;;;7.00;;
5845;SDS011;2949;50.778;7.094;2023-02-22T13:35:01;16.00;;;6.80;;
5845;SDS011;2949;50.778;7.094;2023-02-22T13:41:00;11.23;;;6.43;;
5845;SDS011;2949;50.778;7.094;2023-02-22T13:52:23;10.30;;;7.50;;
5845;SDS011;2949;50.778;7.094;2023-02-22T13:55:00;11.70;;;7.00;;
5845;SDS011;2949;50.778;7.094;2023-02-22T13:57:29;13.53;;;7.70;;
5845;SDS011;2949;50.778;7.094;2023-02-22T14:00:16;12.30;;;7.30;;
5845;SDS011;2949;50.778;7.094;2023-02-22T14:05:33;16.40;;;8.03;;
5845;SDS011;2949;50.778;7.094;2023-02-22T14:07:59;10.80;;;6.87;;
5845;SDS011;2949;50.778;7.094;2023-02-22T14:10:35;14.03;;;6.63;;
5845;SDS011;2949;50.778;7.094;2023-02-22T14:13:08;15.60;;;7.93;;
5845;SDS011;2949;50.778;7.094;2023-02-22T14:15:34;15.67;;;7.57;;
5845;SDS011;2949;50.778;7.094;2023-02-22T14:18:00;16.23;;;7.57;;
5845;SDS011;2949;50.778;7.094;2023-02-22T14:20:32;11.87;;;7.53;;
5845;SDS011;2949;50.778;7.094;2023-02-22T14:26:09;20.40;;;7.30;;
5845;SDS011;2949;50.778;7.094;2023-02-22T14:28:40;13.30;;;8.10;;
5845;SDS011;2949;50.778;7.094;2023-02-22T14:31:16;18.80;;;7.40;;
5845;SDS011;2949;50.778;7.094;2023-02-22T14:34:06;11.20;;;7.70;;
5845;SDS011;2949;50.778;7.094;2023-02-22T14:36:39;12.43;;;8.17;;
5845;SDS011;2949;50.778;7.094;2023-02-22T14:39:22;15.00;;;8.00;;
5845;SDS011;2949;50.778;7.094;2023-02-22T14:42:00;17.50;;;8.60;;
5845;SDS011;2949;50.778;7.094;2023-02-22T14:44:34;10.83;;;7.93;;
5845;SDS011;2949;50.778;7.094;2023-02-22T14:47:05;13.80;;;7.73;;
5845;SDS011;2949;50.778;7.094;2023-02-22T14:49:38;13.70;;;7.97;;
5845;SDS011;2949;50.778;7.094;2023-02-22T14:52:25;22.17;;;8.63;;
5845;SDS011;2949;50.778;7.094;2023-02-22T14:54:55;13.17;;;8.43;;
5845;SDS011;2949;50.778;7.094;2023-02-22T15:00:37;15.53;;;7.80;;
5845;SDS011;2949;50.778;7.094;2023-02-22T15:03:25;18.20;;;7.90;;
5845;SDS011;2949;50.778;7.094;2023-02-22T15:06:20;16.53;;;8.50;;
5845;SDS011;2949;50.778;7.094;2023-02-22T15:08:48;14.77;;;7.70;;
5845;SDS011;2949;50.778;7.094;2023-02-22T15:11:29;11.63;;;7.47;;
5845;SDS011;2949;50.778;7.094;2023-02-22T15:13:56;17.03;;;8.77;;
5845;SDS011;2949;50.778;7.094;2023-02-22T15:16:23;14.47;;;8.10;;
5845;SDS011;2949;50.778;7.094;2023-02-22T15:18:57;11.60;;;7.30;;
5845;SDS011;2949;50.778;7.094;2023-02-22T15:21:27;16.10;;;8.20;;
5845;SDS011;2949;50.778;7.094;2023-02-22T15:24:03;11.83;;;7.97;;
5845;SDS011;2949;50.778;7.094;2023-02-22T15:26:32;13.27;;;7.70;;
5845;SDS011;2949;50.778;7.094;2023-02-22T15:29:07;14.17;;;8.70;;
5845;SDS011;2949;50.778;7.094;2023-02-22T15:31:41;13.97;;;8.80;;
5845;SDS011;2949;50.778;7.094;2023-02-22T15:36:39;16.60;;;8.43;;
5845;SDS011;2949;50.778;7.094;2023-02-22T15:39:15;12.00;;;7.37;;
5845;SDS011;2949;50.778;7.094;2023-02-22T15:42:01;16.63;;;8.23;;
5845;SDS011;2949;50.778;7.094;2023-02-22T15:44:28;14.97;;;8.47;;
5845;SDS011;2949;50.778;7.094;2023-02-22T15:47:06;17.07;;;9.20;;
5845;SDS011;2949;50.778;7.094;2023-02-22T15:49:45;18.10;;;8.03;;
5845;SDS011;2949;50.778;7.094;2023-02-22T15:55:24;18.80;;;9.00;;
5845;SDS011;2949;50.778;7.094;2023-02-22T15:57:52;15.13;;;8.70;;
5845;SDS011;2949;50.778;7.094;2023-02-22T16:00:23;14.03;;;8.10;;
5845;SDS011;2949;50.778;7.094;2023-02-22T16:02:57;15.00;;;7.97;;
5845;SDS011;2949;50.778;7.094;2023-02-22T16:05:27;12.90;;;8.77;;
5845;SDS011;2949;50.778;7.094;2023-02-22T16:08:01;14.63;;;8.67;;
5845;SDS011;2949;50.778;7.094;2023-02-22T16:10:27;17.80;;;9.67;;
5845;SDS011;2949;50.778;7.094;2023-02-22T16:15:31;15.53;;;9.27;;
5845;SDS011;2949;50.778;7.094;2023-02-22T16:17:57;19.70;;;10.17;;
5845;SDS011;2949;50.778;7.094;2023-02-22T16:20:40;14.27;;;8.03;;
5845;SDS011;2949;50.778;7.094;2023-02-22T16:23:23;13.73;;;8.70;;
5845;SDS011;2949;50.778;7.094;2023-02-22T16:26:06;14.93;;;9.40;;
5845;SDS011;2949;50.778;7.094;2023-02-22T16:28:46;17.40;;;9.10;;
5845;SDS011;2949;50.778;7.094;2023-02-22T16:31:18;22.13;;;9.40;;
5845;SDS011;2949;50.778;7.094;2023-02-22T16:34:04;17.30;;;9.20;;
5845;SDS011;2949;50.778;7.094;2023-02-22T16:36:35;19.33;;;10.87;;
5845;SDS011;2949;50.778;7.094;2023-02-22T16:39:09;21.23;;;10.00;;
5845;SDS011;2949;50.778;7.094;2023-02-22T16:41:42;17.60;;;9.20;;
5845;SDS011;2949;50.778;7.094;2023-02-22T16:44:09;11.83;;;8.77;;
5845;SDS011;2949;50.778;7.094;2023-02-22T16:46:36;14.50;;;9.07;;
5845;SDS011;2949;50.778;7.094;2023-02-22T16:49:02;16.77;;;9.00;;
5845;SDS011;2949;50.778;7.094;2023-02-22T16:51:30;14.97;;;9.33;;
5845;SDS011;2949;50.778;7.094;2023-02-22T16:54:03;15.67;;;10.10;;
5845;SDS011;2949;50.778;7.094;2023-02-22T16:56:29;20.37;;;11.60;;
5845;SDS011;2949;50.778;7.094;2023-02-22T16:58:56;21.40;;;10.70;;
5845;SDS011;2949;50.778;7.094;2023-02-22T17:01:25;18.27;;;10.90;;
5845;SDS011;2949;50.778;7.094;2023-02-22T17:03:50;17.93;;;10.60;;